createdAt,value
2023-05-05T00:04:59.514Z,9.55
2023-05-05T00:11:01.372Z,10.33
2023-05-05T00:17:04.031Z,7.25
2023-05-05T00:23:05.792Z,8.97
2023-05-05T00:29:07.230Z,10.30
2023-05-05T00:35:09.203Z,8.20
2023-05-05T00:41:10.697Z,9.10
2023-05-05T00:47:12.763Z,7.85
2023-05-05T00:53:14.362Z,9.73
2023-05-05T00:59:15.974Z,11.88
2023-05-05T01:05:18.112Z,10.20
2023-05-05T01:11:22.554Z,12.37
2023-05-05T01:17:28.692Z,10.55
2023-05-05T01:23:49.175Z,9.23
2023-05-05T01:29:59.888Z,9.27
2023-05-05T01:36:04.154Z,10.15
2023-05-05T01:42:08.152Z,8.63
2023-05-05T01:48:12.595Z,10.13
2023-05-05T01:54:15.313Z,8.97
2023-05-05T02:00:19.325Z,11.00
2023-05-05T02:06:21.559Z,9.52
2023-05-05T02:12:23.023Z,11.73
2023-05-05T02:18:25.255Z,11.10
2023-05-05T02:24:27.025Z,9.53
2023-05-05T02:30:29.997Z,7.93
2023-05-05T02:36:33.303Z,11.00
2023-05-05T02:42:42.396Z,9.63
2023-05-05T02:48:46.207Z,9.00
2023-05-05T02:54:48.036Z,10.40
2023-05-05T03:00:55.658Z,10.82
2023-05-05T03:06:59.479Z,9.02
2023-05-05T03:13:04.202Z,8.37
2023-05-05T03:19:11.509Z,8.38
2023-05-05T03:25:14.394Z,11.67
2023-05-05T03:31:17.256Z,10.43
2023-05-05T03:37:21.990Z,9.85
2023-05-05T03:43:24.105Z,8.70
2023-05-05T03:49:26.740Z,8.80
2023-05-05T03:55:28.853Z,11.27
2023-05-05T04:01:31.443Z,10.05
2023-05-05T04:07:34.460Z,12.35
2023-05-05T04:13:36.688Z,9.73
2023-05-05T04:19:38.481Z,11.65
2023-05-05T04:25:42.345Z,14.20
2023-05-05T04:31:46.721Z,8.93
2023-05-05T04:37:49.526Z,10.50
2023-05-05T04:43:52.748Z,11.83
2023-05-05T04:49:54.932Z,11.07
2023-05-05T04:55:57.038Z,9.93
2023-05-05T05:01:58.662Z,10.52
2023-05-05T05:08:00.258Z,10.07
2023-05-05T05:14:01.981Z,9.70
2023-05-05T05:20:04.928Z,11.27
2023-05-05T05:26:09.008Z,9.87
2023-05-05T05:32:10.934Z,13.35
2023-05-05T05:38:12.974Z,11.57
2023-05-05T05:44:14.527Z,11.83
2023-05-05T05:50:16.408Z,8.88
2023-05-05T05:56:18.636Z,12.53
2023-05-05T06:02:20.860Z,8.18
2023-05-05T06:08:24.847Z,9.15
2023-05-05T06:14:29.885Z,10.30
2023-05-05T06:20:31.553Z,13.27
2023-05-05T06:26:33.260Z,9.20
2023-05-05T06:32:34.758Z,12.52
2023-05-05T06:38:36.401Z,7.50
2023-05-05T06:44:37.871Z,6.77
2023-05-05T06:50:39.334Z,9.40
2023-05-05T06:56:40.981Z,7.20
2023-05-05T07:02:43.384Z,8.15
2023-05-05T07:08:44.803Z,6.55
2023-05-05T07:14:46.469Z,6.77
2023-05-05T07:20:50.764Z,8.90
2023-05-05T07:26:52.723Z,7.43
2023-05-05T07:32:55.080Z,8.45
2023-05-05T07:38:56.755Z,7.72
2023-05-05T07:44:58.357Z,6.67
2023-05-05T07:50:59.936Z,10.45
2023-05-05T07:57:02.094Z,7.10
2023-05-05T08:03:03.841Z,8.07
2023-05-05T08:09:05.429Z,6.38
2023-05-05T08:15:07.405Z,5.83
2023-05-05T08:21:09.489Z,7.32
2023-05-05T08:27:14.667Z,5.57
2023-05-05T08:33:16.198Z,5.65
2023-05-05T08:39:17.826Z,7.18
2023-05-05T08:45:19.282Z,6.03
2023-05-05T08:51:20.989Z,7.15
2023-05-05T08:57:27.726Z,9.23
2023-05-05T09:03:29.649Z,7.90
2023-05-05T09:09:31.486Z,6.20
2023-05-05T09:15:36.648Z,6.17
2023-05-05T09:21:46.282Z,5.68
2023-05-05T09:27:49.163Z,5.17
2023-05-05T09:33:50.644Z,6.95
2023-05-05T09:39:53.600Z,6.72
2023-05-05T09:46:05.527Z,6.90
2023-05-05T09:52:14.791Z,5.60
2023-05-05T09:58:17.250Z,7.47
2023-05-05T10:04:26.860Z,6.80
2023-05-05T10:10:29.072Z,9.20
2023-05-05T10:16:32.841Z,5.60
2023-05-05T10:22:34.885Z,4.47
2023-05-05T10:28:44.721Z,7.03
2023-05-05T10:34:59.759Z,4.95
2023-05-05T10:41:02.074Z,6.18
2023-05-05T10:47:03.996Z,5.40
2023-05-05T10:53:23.505Z,6.57
2023-05-05T10:59:39.206Z,5.40
2023-05-05T11:06:00.943Z,6.13
2023-05-05T11:12:03.948Z,7.00
2023-05-05T11:18:07.974Z,5.77
2023-05-05T11:24:27.561Z,7.40
2023-05-05T11:30:29.256Z,5.37
2023-05-05T11:36:40.385Z,7.78
2023-05-05T11:42:41.917Z,5.65
2023-05-05T11:48:43.973Z,6.20
2023-05-05T11:54:48.661Z,5.70
2023-05-05T12:00:50.270Z,6.17
2023-05-05T12:06:51.942Z,5.38
2023-05-05T12:12:55.360Z,5.68
2023-05-05T12:19:07.860Z,8.20
2023-05-05T12:25:10.446Z,5.28
2023-05-05T12:31:11.918Z,6.50
2023-05-05T12:37:13.555Z,5.60
2023-05-05T12:43:35.272Z,8.90
2023-05-05T12:49:50.260Z,5.37
2023-05-05T12:55:52.327Z,8.70
2023-05-05T13:01:54.909Z,6.47
2023-05-05T13:07:56.436Z,7.70
2023-05-05T13:13:57.910Z,7.15
2023-05-05T13:19:59.402Z,8.53
2023-05-05T13:26:00.835Z,6.00
2023-05-05T13:32:02.372Z,6.37
2023-05-05T13:38:03.890Z,7.18
2023-05-05T13:44:05.367Z,12.10
2023-05-05T13:50:07.658Z,7.80
2023-05-05T13:56:09.179Z,7.03
2023-05-05T14:02:10.695Z,8.17
2023-05-05T14:08:12.898Z,7.57
2023-05-05T14:14:14.311Z,7.90
2023-05-05T14:20:16.217Z,11.33
2023-05-05T14:26:17.844Z,10.57
2023-05-05T14:32:19.613Z,7.57
2023-05-05T14:38:21.202Z,6.15
2023-05-05T14:44:22.671Z,5.68
2023-05-05T14:50:25.249Z,6.50
2023-05-05T14:56:26.922Z,6.45
2023-05-05T15:02:28.668Z,11.30
2023-05-05T15:08:30.351Z,6.40
2023-05-05T15:14:32.737Z,8.15
2023-05-05T15:20:34.430Z,5.67
2023-05-05T15:26:35.937Z,6.65
2023-05-05T15:32:37.472Z,5.53
2023-05-05T15:38:41.454Z,9.43
2023-05-05T15:44:43.250Z,9.02
2023-05-05T15:50:44.679Z,5.47
2023-05-05T15:56:46.240Z,8.40
2023-05-05T16:02:47.929Z,5.70
2023-05-05T16:08:51.645Z,6.82
2023-05-05T16:14:53.233Z,5.53
2023-05-05T16:20:54.649Z,5.73
2023-05-05T16:26:56.073Z,7.78
2023-05-05T16:32:57.614Z,8.63
2023-05-05T16:39:01.854Z,8.60
2023-05-05T16:45:03.388Z,6.88
2023-05-05T16:51:04.919Z,6.37
2023-05-05T16:57:06.382Z,8.10
2023-05-05T17:03:07.976Z,7.83
2023-05-05T17:09:09.613Z,6.03
2023-05-05T17:15:11.488Z,7.10
2023-05-05T17:21:13.103Z,6.17
2023-05-05T17:27:14.687Z,6.85
2023-05-05T17:33:18.335Z,7.73
2023-05-05T17:39:19.925Z,6.47
2023-05-05T17:45:21.463Z,5.78
2023-05-05T17:51:22.944Z,7.90
2023-05-05T17:57:24.386Z,5.85
2023-05-05T18:03:26.253Z,7.40
2023-05-05T18:09:28.028Z,9.98
2023-05-05T18:15:30.082Z,9.48
2023-05-05T18:21:32.053Z,6.67
2023-05-05T18:27:37.320Z,6.82
2023-05-05T18:33:39.058Z,11.10
2023-05-05T18:39:43.796Z,9.63
2023-05-05T18:45:45.988Z,6.88
2023-05-05T18:51:47.719Z,6.13
2023-05-05T18:57:49.498Z,6.03
2023-05-05T19:03:51.653Z,6.23
2023-05-05T19:09:53.831Z,10.63
2023-05-05T19:15:57.216Z,7.28
2023-05-05T19:21:59.956Z,7.07
2023-05-05T19:28:03.165Z,8.32
2023-05-05T19:34:07.695Z,11.83
2023-05-05T19:40:09.921Z,9.75
2023-05-05T19:46:13.254Z,12.32
2023-05-05T19:52:15.320Z,10.50
2023-05-05T19:58:17.279Z,8.85
2023-05-05T20:04:19.189Z,8.43
2023-05-05T20:10:21.591Z,9.18
2023-05-05T20:16:23.487Z,8.85
2023-05-05T20:22:26.630Z,12.67
2023-05-05T20:28:31.466Z,10.80
2023-05-05T20:34:33.198Z,9.90
2023-05-05T20:40:36.054Z,11.20
2023-05-05T20:46:38.806Z,12.60
2023-05-05T20:52:40.590Z,11.27
2023-05-05T20:58:42.366Z,11.35
2023-05-05T21:04:46.525Z,12.27
2023-05-05T21:10:48.459Z,10.52
2023-05-05T21:16:51.454Z,11.00
2023-05-05T21:22:53.267Z,9.93
2023-05-05T21:28:54.883Z,10.02
2023-05-05T21:34:56.493Z,11.97
2023-05-05T21:40:58.946Z,9.48
2023-05-05T21:47:00.492Z,10.18
2023-05-05T21:53:01.918Z,10.57
2023-05-05T21:59:05.193Z,10.70
2023-05-05T22:05:07.176Z,10.97
2023-05-05T22:11:27.061Z,12.50
2023-05-05T22:17:28.647Z,11.07
2023-05-05T22:23:30.346Z,12.40
2023-05-05T22:29:32.050Z,14.93
2023-05-05T22:35:33.599Z,13.50
2023-05-05T22:41:35.170Z,12.85
2023-05-05T22:47:36.832Z,12.15
2023-05-05T22:53:38.773Z,12.67
2023-05-05T22:59:40.258Z,14.40
2023-05-05T23:05:42.161Z,13.30
2023-05-05T23:11:44.327Z,14.38
2023-05-05T23:17:45.963Z,14.00
2023-05-05T23:23:49.123Z,13.47
2023-05-05T23:29:50.699Z,14.70
2023-05-05T23:35:52.312Z,14.93
2023-05-05T23:41:57.440Z,14.00
2023-05-05T23:47:59.051Z,16.52
2023-05-05T23:54:01.072Z,14.07
